KRDR

Grand Forks AFB Airport

Grand Forks, North Dakota, USA
METAR KRDR 151756Z AUTO 35010KT 10SM CLR M18/M23 A3020 RMK AO2 SLP260 T11791229 11179 21240 53010
Observed Flight Rules
Feb-15 @ 17:56 UTC (an hour ago) Visual Flight Rules
Wind Visibility Clouds
350° at 10 knots 10 miles
  • Clear skies
Temperatures Readings
Current -18°C / -0°F
Dewpoint -23°C / -9°F
Humidity 65%
Altimeter 30.2" Hg
Pressure 1026 hPa
Elevation 278
METAR KRDR 151756Z AUTO 35010KT 10SM CLR M18/M23 A3020 RMK AO2 SLP260 T11791229 11179 21240 53010
Observed Flight Rules
Feb-15 @ 17:56 UTC
(an hour ago)
VFR
Wind Visibility
350° at 10 knots 10 miles
Clouds
  • Clear skies
Temperature Dewpoint
-18°C / -0°F -23°C / -9°F
Humidity Altimeter Pressure
65% 30.2" Hg 1026 hPa